Terminal Aerodrome Forecast
Issued by NWS

Home | Current Version | Previous Version | Text Only | Print | Product List | Glossary On
Versions: 1 2 3 4 5 6 7 8 9 10 11 12 13 14 15
000
FTUS43 KMPX 031247 AAA
TAFRWF
TAF AMD
KRWF 031247Z 0313/0412 18012KT P6SM -SHRA VCTS OVC040CB
      TEMPO 0313/0316 6SM -TSRA BKN025CB OVC040
     FM031800 20010KT P6SM VCSH SCT025 BKN040
     FM032200 26007KT P6SM SCT020 BKN040
     FM040200 31008KT P6SM SCT025 BKN050
     FM040900 32005KT P6SM OVC020=

USA.gov is the U.S. government's official web portal to all federal, state and local government web resources and services.